sensor_id;sensor_type;location;lat;lon;timestamp;pressure;altitude;pressure_sealevel;temperature;humidity
70833;BME280;58452;59.418;17.962;2023-04-28T00:00:26;100914.28;;;4.39;75.18
70833;BME280;58452;59.418;17.962;2023-04-28T00:02:51;100924.50;;;4.39;75.49
70833;BME280;58452;59.418;17.962;2023-04-28T00:05:18;100922.44;;;4.44;74.51
70833;BME280;58452;59.418;17.962;2023-04-28T00:07:43;100923.09;;;4.48;74.90
70833;BME280;58452;59.418;17.962;2023-04-28T00:10:09;100923.72;;;4.51;74.53
70833;BME280;58452;59.418;17.962;2023-04-28T00:12:34;100925.13;;;4.55;74.01
70833;BME280;58452;59.418;17.962;2023-04-28T00:15:00;100930.84;;;4.46;74.00
70833;BME280;58452;59.418;17.962;2023-04-28T00:17:26;100927.47;;;4.46;74.90
70833;BME280;58452;59.418;17.962;2023-04-28T00:19:51;100933.81;;;4.40;75.28
70833;BME280;58452;59.418;17.962;2023-04-28T00:22:17;100936.94;;;4.31;74.87
70833;BME280;58452;59.418;17.962;2023-04-28T00:24:43;100928.97;;;4.35;74.84
70833;BME280;58452;59.418;17.962;2023-04-28T00:27:09;100926.72;;;4.31;74.64
70833;BME280;58452;59.418;17.962;2023-04-28T00:29:35;100929.88;;;4.34;74.87
70833;BME280;58452;59.418;17.962;2023-04-28T00:32:01;100932.28;;;4.23;74.77
70833;BME280;58452;59.418;17.962;2023-04-28T00:34:27;100937.38;;;3.97;76.60
70833;BME280;58452;59.418;17.962;2023-04-28T00:36:54;100940.09;;;4.08;75.97
70833;BME280;58452;59.418;17.962;2023-04-28T00:39:19;100938.00;;;4.14;75.49
70833;BME280;58452;59.418;17.962;2023-04-28T00:41:47;100938.00;;;4.14;75.76
70833;BME280;58452;59.418;17.962;2023-04-28T00:44:12;100944.00;;;4.13;75.54
70833;BME280;58452;59.418;17.962;2023-04-28T00:46:37;100940.69;;;3.99;75.92
70833;BME280;58452;59.418;17.962;2023-04-28T00:49:03;100944.78;;;3.87;76.59
70833;BME280;58452;59.418;17.962;2023-04-28T00:51:29;100948.72;;;3.92;76.49
70833;BME280;58452;59.418;17.962;2023-04-28T00:53:55;100949.97;;;3.85;76.26
70833;BME280;58452;59.418;17.962;2023-04-28T00:56:21;100952.19;;;3.91;75.98
70833;BME280;58452;59.418;17.962;2023-04-28T00:58:46;100955.47;;;3.79;75.71
70833;BME280;58452;59.418;17.962;2023-04-28T01:01:12;100967.97;;;3.84;76.31
70833;BME280;58452;59.418;17.962;2023-04-28T01:03:39;100955.63;;;3.90;76.29
70833;BME280;58452;59.418;17.962;2023-04-28T01:06:08;100955.44;;;3.93;75.72
70833;BME280;58452;59.418;17.962;2023-04-28T01:08:35;100956.38;;;3.92;76.20
70833;BME280;58452;59.418;17.962;2023-04-28T01:11:01;100948.72;;;3.92;76.39
70833;BME280;58452;59.418;17.962;2023-04-28T01:13:27;100953.47;;;3.84;75.94
70833;BME280;58452;59.418;17.962;2023-04-28T01:15:54;100960.03;;;3.88;76.14
70833;BME280;58452;59.418;17.962;2023-04-28T01:18:20;100951.28;;;3.92;75.91
70833;BME280;58452;59.418;17.962;2023-04-28T01:20:45;100949.44;;;3.94;75.46
70833;BME280;58452;59.418;17.962;2023-04-28T01:23:15;100952.88;;;3.93;74.83
70833;BME280;58452;59.418;17.962;2023-04-28T01:25:41;100958.38;;;3.87;75.40
70833;BME280;58452;59.418;17.962;2023-04-28T01:28:08;100947.53;;;3.84;75.39
70833;BME280;58452;59.418;17.962;2023-04-28T01:30:34;100961.13;;;3.84;75.01
70833;BME280;58452;59.418;17.962;2023-04-28T01:33:01;100960.31;;;3.70;75.51
70833;BME280;58452;59.418;17.962;2023-04-28T01:35:26;100959.69;;;3.52;76.57
70833;BME280;58452;59.418;17.962;2023-04-28T01:37:52;100951.03;;;3.55;76.18
70833;BME280;58452;59.418;17.962;2023-04-28T01:40:17;100960.59;;;3.51;76.37
70833;BME280;58452;59.418;17.962;2023-04-28T01:42:43;100956.22;;;3.39;76.37
70833;BME280;58452;59.418;17.962;2023-04-28T01:45:09;100960.22;;;3.43;77.21
70833;BME280;58452;59.418;17.962;2023-04-28T01:47:34;100964.94;;;3.35;77.13
70833;BME280;58452;59.418;17.962;2023-04-28T01:50:00;100963.31;;;3.34;77.15
70833;BME280;58452;59.418;17.962;2023-04-28T01:52:26;100961.94;;;3.14;77.37
70833;BME280;58452;59.418;17.962;2023-04-28T01:54:52;100971.13;;;3.17;77.78
70833;BME280;58452;59.418;17.962;2023-04-28T01:57:18;100961.94;;;3.14;77.83
70833;BME280;58452;59.418;17.962;2023-04-28T01:59:44;100966.22;;;3.14;78.12
70833;BME280;58452;59.418;17.962;2023-04-28T02:02:09;100964.88;;;3.22;77.68
70833;BME280;58452;59.418;17.962;2023-04-28T02:04:37;100966.59;;;3.22;77.19
70833;BME280;58452;59.418;17.962;2023-04-28T02:07:02;100961.03;;;3.15;77.55
70833;BME280;58452;59.418;17.962;2023-04-28T02:09:28;100964.50;;;3.28;77.62
70833;BME280;58452;59.418;17.962;2023-04-28T02:11:53;100968.94;;;3.11;77.33
70833;BME280;58452;59.418;17.962;2023-04-28T02:14:18;100965.00;;;3.19;77.68
70833;BME280;58452;59.418;17.962;2023-04-28T02:16:44;100973.69;;;3.31;77.21
70833;BME280;58452;59.418;17.962;2023-04-28T02:19:09;100973.34;;;3.37;76.69
70833;BME280;58452;59.418;17.962;2023-04-28T02:21:35;100988.47;;;3.40;75.78
70833;BME280;58452;59.418;17.962;2023-04-28T02:24:00;100977.25;;;3.42;75.92
70833;BME280;58452;59.418;17.962;2023-04-28T02:26:26;100980.63;;;3.43;75.60
70833;BME280;58452;59.418;17.962;2023-04-28T02:28:52;100983.72;;;3.34;75.80
70833;BME280;58452;59.418;17.962;2023-04-28T02:31:17;100990.22;;;3.10;75.73
70833;BME280;58452;59.418;17.962;2023-04-28T02:33:42;100987.91;;;2.91;76.62
70833;BME280;58452;59.418;17.962;2023-04-28T02:36:08;100980.72;;;2.97;76.34
70833;BME280;58452;59.418;17.962;2023-04-28T02:38:34;100989.94;;;3.00;76.52
70833;BME280;58452;59.418;17.962;2023-04-28T02:41:04;100991.50;;;3.03;75.95
70833;BME280;58452;59.418;17.962;2023-04-28T02:43:30;100991.31;;;3.06;76.39
70833;BME280;58452;59.418;17.962;2023-04-28T02:45:56;100992.22;;;3.05;76.45
70833;BME280;58452;59.418;17.962;2023-04-28T02:48:23;100989.41;;;3.09;76.12
70833;BME280;58452;59.418;17.962;2023-04-28T02:50:48;100987.78;;;3.08;76.32
70833;BME280;58452;59.418;17.962;2023-04-28T02:53:14;100990.13;;;2.97;77.38
70833;BME280;58452;59.418;17.962;2023-04-28T02:55:39;100993.91;;;2.90;77.79
70833;BME280;58452;59.418;17.962;2023-04-28T02:58:05;100989.38;;;2.65;79.41
70833;BME280;58452;59.418;17.962;2023-04-28T03:00:30;100997.91;;;2.64;79.97
70833;BME280;58452;59.418;17.962;2023-04-28T03:02:56;100997.47;;;2.72;80.47
70833;BME280;58452;59.418;17.962;2023-04-28T03:05:21;100996.72;;;2.85;80.28
70833;BME280;58452;59.418;17.962;2023-04-28T03:07:47;100999.09;;;2.88;79.51
70833;BME280;58452;59.418;17.962;2023-04-28T03:10:12;101003.63;;;2.83;80.06
70833;BME280;58452;59.418;17.962;2023-04-28T03:12:38;101000.56;;;2.63;81.20
70833;BME280;58452;59.418;17.962;2023-04-28T03:15:03;101010.16;;;2.58;81.80
70833;BME280;58452;59.418;17.962;2023-04-28T03:17:30;101006.41;;;2.49;81.83
70833;BME280;58452;59.418;17.962;2023-04-28T03:19:58;101011.41;;;2.51;82.10
70833;BME280;58452;59.418;17.962;2023-04-28T03:22:23;101010.19;;;2.42;82.74
70833;BME280;58452;59.418;17.962;2023-04-28T03:24:49;101010.59;;;2.50;82.92
70833;BME280;58452;59.418;17.962;2023-04-28T03:27:14;101001.06;;;2.38;83.34
70833;BME280;58452;59.418;17.962;2023-04-28T03:29:40;101013.81;;;2.38;83.55
70833;BME280;58452;59.418;17.962;2023-04-28T03:32:05;101013.94;;;2.35;83.95
70833;BME280;58452;59.418;17.962;2023-04-28T03:34:31;101016.03;;;2.44;83.75
70833;BME280;58452;59.418;17.962;2023-04-28T03:36:56;101024.56;;;2.43;84.14
70833;BME280;58452;59.418;17.962;2023-04-28T03:39:21;101016.38;;;2.38;84.31
70833;BME280;58452;59.418;17.962;2023-04-28T03:41:47;101016.00;;;2.28;84.71
70833;BME280;58452;59.418;17.962;2023-04-28T03:44:12;101014.88;;;2.34;84.94
70833;BME280;58452;59.418;17.962;2023-04-28T03:46:38;101023.59;;;2.30;84.46
70833;BME280;58452;59.418;17.962;2023-04-28T03:49:04;101025.56;;;2.40;85.02
70833;BME280;58452;59.418;17.962;2023-04-28T03:51:30;101027.09;;;2.43;85.14
70833;BME280;58452;59.418;17.962;2023-04-28T03:53:57;101025.31;;;2.45;85.00
70833;BME280;58452;59.418;17.962;2023-04-28T03:56:23;101028.69;;;2.45;85.65
70833;BME280;58452;59.418;17.962;2023-04-28T03:58:48;101037.13;;;2.46;85.30
70833;BME280;58452;59.418;17.962;2023-04-28T04:01:14;101034.09;;;2.55;85.24
70833;BME280;58452;59.418;17.962;2023-04-28T04:03:39;101036.88;;;2.51;85.08
70833;BME280;58452;59.418;17.962;2023-04-28T04:06:05;101035.91;;;2.53;85.14
70833;BME280;58452;59.418;17.962;2023-04-28T04:08:31;101039.66;;;2.46;85.09
70833;BME280;58452;59.418;17.962;2023-04-28T04:10:57;101042.63;;;2.54;85.41
70833;BME280;58452;59.418;17.962;2023-04-28T04:13:23;101040.19;;;2.37;85.66
70833;BME280;58452;59.418;17.962;2023-04-28T04:15:48;101040.66;;;2.43;85.49
70833;BME280;58452;59.418;17.962;2023-04-28T04:18:15;101041.91;;;2.52;85.19
70833;BME280;58452;59.418;17.962;2023-04-28T04:20:40;101040.84;;;2.56;85.41
70833;BME280;58452;59.418;17.962;2023-04-28T04:23:06;101029.88;;;2.54;84.88
70833;BME280;58452;59.418;17.962;2023-04-28T04:25:32;101043.97;;;2.45;84.87
70833;BME280;58452;59.418;17.962;2023-04-28T04:27:58;101043.97;;;2.45;84.80
70833;BME280;58452;59.418;17.962;2023-04-28T04:30:24;101049.84;;;2.46;85.55
70833;BME280;58452;59.418;17.962;2023-04-28T04:32:49;101053.22;;;2.46;85.96
70833;BME280;58452;59.418;17.962;2023-04-28T04:35:14;101053.75;;;2.53;86.18
70833;BME280;58452;59.418;17.962;2023-04-28T04:37:40;101060.47;;;2.54;85.43
70833;BME280;58452;59.418;17.962;2023-04-28T04:40:06;101057.03;;;2.55;85.19
70833;BME280;58452;59.418;17.962;2023-04-28T04:42:32;101053.16;;;2.48;85.36
70833;BME280;58452;59.418;17.962;2023-04-28T04:44:57;101068.91;;;2.39;85.50
70833;BME280;58452;59.418;17.962;2023-04-28T04:47:22;101064.88;;;2.35;85.52
70833;BME280;58452;59.418;17.962;2023-04-28T04:49:48;101063.09;;;2.37;85.78
70833;BME280;58452;59.418;17.962;2023-04-28T04:52:14;101065.66;;;2.37;85.34
70833;BME280;58452;59.418;17.962;2023-04-28T04:54:40;101066.13;;;2.28;85.67
70833;BME280;58452;59.418;17.962;2023-04-28T04:57:05;101066.53;;;2.36;86.18
70833;BME280;58452;59.418;17.962;2023-04-28T04:59:31;101072.38;;;2.38;85.87
70833;BME280;58452;59.418;17.962;2023-04-28T05:01:57;101077.63;;;2.35;86.02
70833;BME280;58452;59.418;17.962;2023-04-28T05:04:22;101073.28;;;2.37;86.32
70833;BME280;58452;59.418;17.962;2023-04-28T05:06:48;101084.19;;;2.39;86.03
70833;BME280;58452;59.418;17.962;2023-04-28T05:09:13;101077.16;;;2.44;85.75
70833;BME280;58452;59.418;17.962;2023-04-28T05:11:39;101078.69;;;2.46;85.87
70833;BME280;58452;59.418;17.962;2023-04-28T05:14:05;101085.69;;;2.43;85.96
70833;BME280;58452;59.418;17.962;2023-04-28T05:16:30;101087.09;;;2.33;86.47
70833;BME280;58452;59.418;17.962;2023-04-28T05:18:56;101086.41;;;2.29;85.76
70833;BME280;58452;59.418;17.962;2023-04-28T05:21:21;101087.97;;;2.32;86.39
70833;BME280;58452;59.418;17.962;2023-04-28T05:23:47;101092.19;;;2.33;86.55
70833;BME280;58452;59.418;17.962;2023-04-28T05:26:12;101090.53;;;2.32;86.49
70833;BME280;58452;59.418;17.962;2023-04-28T05:28:39;101085.75;;;2.26;86.50
70833;BME280;58452;59.418;17.962;2023-04-28T05:31:05;101086.03;;;2.37;87.74
70833;BME280;58452;59.418;17.962;2023-04-28T05:33:31;101091.28;;;2.34;87.27
70833;BME280;58452;59.418;17.962;2023-04-28T05:35:56;101096.53;;;2.46;86.69
70833;BME280;58452;59.418;17.962;2023-04-28T05:38:22;101096.28;;;2.51;86.21
70833;BME280;58452;59.418;17.962;2023-04-28T05:40:47;101094.56;;;2.36;85.81
70833;BME280;58452;59.418;17.962;2023-04-28T05:43:13;101093.81;;;2.34;86.86
70833;BME280;58452;59.418;17.962;2023-04-28T05:45:39;101104.75;;;2.36;86.73
70833;BME280;58452;59.418;17.962;2023-04-28T05:48:04;101096.53;;;2.46;86.62
70833;BME280;58452;59.418;17.962;2023-04-28T05:50:30;101098.03;;;2.51;86.03
70833;BME280;58452;59.418;17.962;2023-04-28T05:52:56;101104.44;;;2.42;85.74
70833;BME280;58452;59.418;17.962;2023-04-28T05:55:21;101103.25;;;2.32;86.14
70833;BME280;58452;59.418;17.962;2023-04-28T05:57:47;101103.13;;;2.51;86.52
70833;BME280;58452;59.418;17.962;2023-04-28T06:00:13;101102.47;;;2.47;87.46
70833;BME280;58452;59.418;17.962;2023-04-28T06:02:39;101112.81;;;2.44;86.29
70833;BME280;58452;59.418;17.962;2023-04-28T06:05:04;101108.22;;;2.51;86.18
70833;BME280;58452;59.418;17.962;2023-04-28T06:07:30;101109.19;;;2.48;86.13
70833;BME280;58452;59.418;17.962;2023-04-28T06:09:55;101108.59;;;2.43;85.86
70833;BME280;58452;59.418;17.962;2023-04-28T06:12:21;101111.41;;;2.54;86.32
70833;BME280;58452;59.418;17.962;2023-04-28T06:14:46;101111.50;;;2.68;85.71
70833;BME280;58452;59.418;17.962;2023-04-28T06:17:12;101111.50;;;2.68;84.62
70833;BME280;58452;59.418;17.962;2023-04-28T06:19:37;101125.06;;;2.84;85.70
70833;BME280;58452;59.418;17.962;2023-04-28T06:22:03;101122.69;;;2.97;85.21
70833;BME280;58452;59.418;17.962;2023-04-28T06:24:28;101123.84;;;2.91;83.77
70833;BME280;58452;59.418;17.962;2023-04-28T06:26:54;101121.53;;;3.03;84.55
70833;BME280;58452;59.418;17.962;2023-04-28T06:29:19;101126.38;;;2.91;84.45
70833;BME280;58452;59.418;17.962;2023-04-28T06:31:47;101130.75;;;2.89;84.68
70833;BME280;58452;59.418;17.962;2023-04-28T06:34:12;101141.84;;;2.88;84.50
70833;BME280;58452;59.418;17.962;2023-04-28T06:36:38;101141.34;;;2.66;84.28
70833;BME280;58452;59.418;17.962;2023-04-28T06:39:04;101150.63;;;2.83;85.94
70833;BME280;58452;59.418;17.962;2023-04-28T06:41:29;101144.41;;;3.04;85.10
70833;BME280;58452;59.418;17.962;2023-04-28T06:43:55;101149.50;;;3.04;84.28
70833;BME280;58452;59.418;17.962;2023-04-28T06:46:21;101152.19;;;3.17;85.03
70833;BME280;58452;59.418;17.962;2023-04-28T06:48:46;101148.72;;;3.18;84.23
70833;BME280;58452;59.418;17.962;2023-04-28T06:51:13;101160.66;;;2.70;83.39
70833;BME280;58452;59.418;17.962;2023-04-28T06:53:39;101164.97;;;2.85;83.74
70833;BME280;58452;59.418;17.962;2023-04-28T06:56:05;101162.66;;;2.97;83.91
70833;BME280;58452;59.418;17.962;2023-04-28T06:58:30;101169.66;;;2.93;83.67
70833;BME280;58452;59.418;17.962;2023-04-28T07:00:56;101170.22;;;2.82;84.34
70833;BME280;58452;59.418;17.962;2023-04-28T07:03:21;101169.72;;;2.91;84.66
70833;BME280;58452;59.418;17.962;2023-04-28T07:05:47;101164.97;;;2.85;84.59
70833;BME280;58452;59.418;17.962;2023-04-28T07:08:12;101172.66;;;2.68;84.75
70833;BME280;58452;59.418;17.962;2023-04-28T07:10:38;101172.34;;;2.74;84.56
70833;BME280;58452;59.418;17.962;2023-04-28T07:13:03;101167.66;;;2.67;84.75
70833;BME280;58452;59.418;17.962;2023-04-28T07:15:29;101176.38;;;2.78;85.22
70833;BME280;58452;59.418;17.962;2023-04-28T07:17:55;101169.72;;;2.60;85.60
70833;BME280;58452;59.418;17.962;2023-04-28T07:20:21;101172.66;;;2.68;85.13
70833;BME280;58452;59.418;17.962;2023-04-28T07:22:46;101170.22;;;2.82;84.85
70833;BME280;58452;59.418;17.962;2023-04-28T07:25:12;101182.03;;;2.83;84.93
70833;BME280;58452;59.418;17.962;2023-04-28T07:27:37;101177.53;;;3.04;85.23
70833;BME280;58452;59.418;17.962;2023-04-28T07:30:03;101172.75;;;3.14;84.22
70833;BME280;58452;59.418;17.962;2023-04-28T07:32:28;101178.59;;;3.16;83.72
70833;BME280;58452;59.418;17.962;2023-04-28T07:34:54;101190.19;;;3.06;82.70
70833;BME280;58452;59.418;17.962;2023-04-28T07:37:19;101184.50;;;3.16;84.12
70833;BME280;58452;59.418;17.962;2023-04-28T07:39:45;101199.75;;;3.18;83.80
70833;BME280;58452;59.418;17.962;2023-04-28T07:42:11;101196.19;;;3.05;83.53
70833;BME280;58452;59.418;17.962;2023-04-28T07:44:37;101187.63;;;3.06;83.82
70833;BME280;58452;59.418;17.962;2023-04-28T07:47:02;101201.22;;;3.06;83.45
70833;BME280;58452;59.418;17.962;2023-04-28T07:49:28;101202.78;;;3.09;82.96
70833;BME280;58452;59.418;17.962;2023-04-28T07:51:53;101201.88;;;3.10;83.08
70833;BME280;58452;59.418;17.962;2023-04-28T07:54:20;101205.66;;;3.18;82.99
70833;BME280;58452;59.418;17.962;2023-04-28T07:56:45;101200.16;;;3.26;83.28
70833;BME280;58452;59.418;17.962;2023-04-28T07:59:11;101203.41;;;3.43;83.96
70833;BME280;58452;59.418;17.962;2023-04-28T08:01:36;101208.66;;;3.56;82.80
70833;BME280;58452;59.418;17.962;2023-04-28T08:04:02;101210.78;;;3.64;82.12
70833;BME280;58452;59.418;17.962;2023-04-28T08:06:27;101214.63;;;3.41;81.61
70833;BME280;58452;59.418;17.962;2023-04-28T08:08:53;101222.19;;;3.42;81.93
70833;BME280;58452;59.418;17.962;2023-04-28T08:11:20;101224.31;;;3.50;81.35
70833;BME280;58452;59.418;17.962;2023-04-28T08:13:46;101222.50;;;3.52;80.63
70833;BME280;58452;59.418;17.962;2023-04-28T08:16:12;101219.88;;;3.38;80.28
70833;BME280;58452;59.418;17.962;2023-04-28T08:18:37;101220.16;;;3.63;81.50
70833;BME280;58452;59.418;17.962;2023-04-28T08:21:03;101221.34;;;3.58;79.45
70833;BME280;58452;59.418;17.962;2023-04-28T08:23:29;101231.03;;;3.67;79.97
70833;BME280;58452;59.418;17.962;2023-04-28T08:25:56;101236.44;;;3.76;81.90
70833;BME280;58452;59.418;17.962;2023-04-28T08:28:21;101234.47;;;3.81;79.32
70833;BME280;58452;59.418;17.962;2023-04-28T08:30:47;101239.19;;;3.73;79.61
70833;BME280;58452;59.418;17.962;2023-04-28T08:33:13;101240.66;;;3.77;78.74
70833;BME280;58452;59.418;17.962;2023-04-28T08:35:38;101233.00;;;3.77;79.00
70833;BME280;58452;59.418;17.962;2023-04-28T08:38:05;101232.31;;;4.04;78.62
70833;BME280;58452;59.418;17.962;2023-04-28T08:40:31;101235.28;;;4.26;78.73
70833;BME280;58452;59.418;17.962;2023-04-28T08:42:58;101237.81;;;4.12;75.85
70833;BME280;58452;59.418;17.962;2023-04-28T08:45:24;101236.00;;;4.14;75.94
70833;BME280;58452;59.418;17.962;2023-04-28T08:47:50;101243.50;;;4.31;75.88
70833;BME280;58452;59.418;17.962;2023-04-28T08:50:20;101240.72;;;4.06;74.54
70833;BME280;58452;59.418;17.962;2023-04-28T08:52:47;101239.31;;;4.30;75.18
70833;BME280;58452;59.418;17.962;2023-04-28T08:55:12;101244.81;;;4.38;75.71
70833;BME280;58452;59.418;17.962;2023-04-28T08:57:45;101238.88;;;4.52;73.55
70833;BME280;58452;59.418;17.962;2023-04-28T09:00:12;101241.72;;;4.47;72.81
70833;BME280;58452;59.418;17.962;2023-04-28T09:02:39;101240.25;;;4.57;72.42
70833;BME280;58452;59.418;17.962;2023-04-28T09:05:09;101243.44;;;4.75;72.43
70833;BME280;58452;59.418;17.962;2023-04-28T09:07:35;101246.09;;;4.73;73.12
70833;BME280;58452;59.418;17.962;2023-04-28T09:10:23;101247.19;;;4.83;73.35
70833;BME280;58452;59.418;17.962;2023-04-28T09:12:51;101246.25;;;4.84;72.45
70833;BME280;58452;59.418;17.962;2023-04-28T09:17:53;101245.66;;;5.22;73.23
70833;BME280;58452;59.418;17.962;2023-04-28T09:20:23;101238.69;;;5.38;70.86
70833;BME280;58452;59.418;17.962;2023-04-28T09:22:50;101250.59;;;5.39;70.55
70833;BME280;58452;59.418;17.962;2023-04-28T09:25:17;101245.81;;;5.33;70.37
70833;BME280;58452;59.418;17.962;2023-04-28T09:27:43;101250.13;;;5.32;71.58
70833;BME280;58452;59.418;17.962;2023-04-28T09:30:09;101251.97;;;5.30;70.33
70833;BME280;58452;59.418;17.962;2023-04-28T09:32:35;101255.69;;;5.39;70.07
70833;BME280;58452;59.418;17.962;2023-04-28T09:35:01;101249.88;;;5.23;70.10
70833;BME280;58452;59.418;17.962;2023-04-28T09:37:27;101259.56;;;5.32;70.08
70833;BME280;58452;59.418;17.962;2023-04-28T09:40:01;101245.94;;;5.31;70.40
70833;BME280;58452;59.418;17.962;2023-04-28T09:42:38;101250.75;;;5.36;69.03
70833;BME280;58452;59.418;17.962;2023-04-28T09:45:09;101248.66;;;5.43;69.43
70833;BME280;58452;59.418;17.962;2023-04-28T09:47:38;101250.47;;;5.40;67.44
70833;BME280;58452;59.418;17.962;2023-04-28T09:50:06;101241.97;;;5.40;68.28
70833;BME280;58452;59.418;17.962;2023-04-28T09:52:35;101247.38;;;5.62;68.56
70833;BME280;58452;59.418;17.962;2023-04-28T09:55:03;101243.94;;;5.76;67.02
70833;BME280;58452;59.418;17.962;2023-04-28T09:57:33;101242.25;;;5.89;66.37
70833;BME280;58452;59.418;17.962;2023-04-28T10:00:00;101249.88;;;5.76;67.25
70833;BME280;58452;59.418;17.962;2023-04-28T10:02:26;101254.25;;;5.35;67.76
70833;BME280;58452;59.418;17.962;2023-04-28T10:04:52;101256.72;;;5.22;68.25
70833;BME280;58452;59.418;17.962;2023-04-28T10:07:19;101256.34;;;5.28;69.04
70833;BME280;58452;59.418;17.962;2023-04-28T10:09:46;101261.53;;;5.41;69.25
70833;BME280;58452;59.418;17.962;2023-04-28T10:12:15;101253.81;;;5.55;69.46
70833;BME280;58452;59.418;17.962;2023-04-28T10:14:42;101252.16;;;5.54;68.09
70833;BME280;58452;59.418;17.962;2023-04-28T10:17:09;101257.25;;;5.68;68.85
70833;BME280;58452;59.418;17.962;2023-04-28T10:19:35;101247.47;;;5.87;67.58
70833;BME280;58452;59.418;17.962;2023-04-28T10:25:26;101240.16;;;6.46;63.59
70833;BME280;58452;59.418;17.962;2023-04-28T10:27:52;101234.13;;;6.60;60.36
70833;BME280;58452;59.418;17.962;2023-04-28T10:30:20;101230.94;;;6.56;60.86
70833;BME280;58452;59.418;17.962;2023-04-28T10:32:47;101231.00;;;6.80;60.95
70833;BME280;58452;59.418;17.962;2023-04-28T10:38:18;101227.78;;;7.02;60.72
70833;BME280;58452;59.418;17.962;2023-04-28T10:40:47;101226.16;;;7.01;57.85
70833;BME280;58452;59.418;17.962;2023-04-28T10:48:50;101224.53;;;7.47;58.48
70833;BME280;58452;59.418;17.962;2023-04-28T10:56:17;101229.34;;;7.28;58.53
70833;BME280;58452;59.418;17.962;2023-04-28T10:58:47;101233.84;;;7.37;58.13
70833;BME280;58452;59.418;17.962;2023-04-28T11:01:31;101226.63;;;7.42;57.34
70833;BME280;58452;59.418;17.962;2023-04-28T11:04:06;101228.41;;;7.76;58.11
70833;BME280;58452;59.418;17.962;2023-04-28T11:06:35;101230.59;;;7.70;57.07
70833;BME280;58452;59.418;17.962;2023-04-28T11:16:57;101230.91;;;8.35;53.00
70833;BME280;58452;59.418;17.962;2023-04-28T11:19:32;101224.84;;;8.36;52.62
70833;BME280;58452;59.418;17.962;2023-04-28T11:22:02;101225.06;;;8.55;52.56
70833;BME280;58452;59.418;17.962;2023-04-28T11:24:29;101234.19;;;8.81;51.91
70833;BME280;58452;59.418;17.962;2023-04-28T11:26:58;101238.66;;;8.57;51.87
70833;BME280;58452;59.418;17.962;2023-04-28T11:31:59;101235.88;;;8.14;52.55
70833;BME280;58452;59.418;17.962;2023-04-28T11:34:25;101237.06;;;8.21;51.71
70833;BME280;58452;59.418;17.962;2023-04-28T11:36:50;101235.72;;;8.05;50.40
70833;BME280;58452;59.418;17.962;2023-04-28T11:39:24;101245.88;;;7.95;50.29
70833;BME280;58452;59.418;17.962;2023-04-28T11:41:52;101244.06;;;7.73;50.88
70833;BME280;58452;59.418;17.962;2023-04-28T11:44:20;101244.59;;;8.01;52.46
70833;BME280;58452;59.418;17.962;2023-04-28T11:46:54;101255.75;;;8.23;52.47
70833;BME280;58452;59.418;17.962;2023-04-28T11:49:29;101250.47;;;8.03;51.56
70833;BME280;58452;59.418;17.962;2023-04-28T11:52:03;101248.13;;;8.00;51.17
70833;BME280;58452;59.418;17.962;2023-04-28T11:54:30;101254.19;;;7.99;51.27
70833;BME280;58452;59.418;17.962;2023-04-28T11:56:57;101256.75;;;7.99;51.96
70833;BME280;58452;59.418;17.962;2023-04-28T11:59:27;101253.91;;;7.91;50.97
70833;BME280;58452;59.418;17.962;2023-04-28T12:01:56;101251.38;;;8.02;51.44
70833;BME280;58452;59.418;17.962;2023-04-28T12:07:15;101252.94;;;7.80;52.42
70833;BME280;58452;59.418;17.962;2023-04-28T12:09:43;101251.13;;;7.94;51.79
70833;BME280;58452;59.418;17.962;2023-04-28T12:12:11;101253.16;;;8.12;51.48
70833;BME280;58452;59.418;17.962;2023-04-28T12:17:29;101242.63;;;8.72;51.54
70833;BME280;58452;59.418;17.962;2023-04-28T12:19:57;101239.78;;;9.09;48.85
70833;BME280;58452;59.418;17.962;2023-04-28T12:22:23;101237.28;;;9.29;48.65
70833;BME280;58452;59.418;17.962;2023-04-28T12:25:10;101237.28;;;9.61;48.82
70833;BME280;58452;59.418;17.962;2023-04-28T12:27:37;101238.38;;;9.59;48.52
70833;BME280;58452;59.418;17.962;2023-04-28T12:30:28;101240.41;;;9.44;48.32
70833;BME280;58452;59.418;17.962;2023-04-28T12:32:54;101238.53;;;9.46;48.07
70833;BME280;58452;59.418;17.962;2023-04-28T12:35:29;101234.66;;;9.72;49.11
70833;BME280;58452;59.418;17.962;2023-04-28T12:37:55;101245.56;;;9.76;47.17
70833;BME280;58452;59.418;17.962;2023-04-28T12:40:22;101245.88;;;9.51;47.62
70833;BME280;58452;59.418;17.962;2023-04-28T12:42:48;101239.59;;;9.44;47.77
70833;BME280;58452;59.418;17.962;2023-04-28T12:45:14;101246.75;;;9.40;45.64
70833;BME280;58452;59.418;17.962;2023-04-28T12:47:41;101232.28;;;9.17;47.08
70833;BME280;58452;59.418;17.962;2023-04-28T12:50:06;101233.53;;;9.33;47.75
70833;BME280;58452;59.418;17.962;2023-04-28T12:52:33;101240.94;;;9.27;47.76
70833;BME280;58452;59.418;17.962;2023-04-28T12:55:00;101231.72;;;9.13;46.03
70833;BME280;58452;59.418;17.962;2023-04-28T12:57:25;101238.34;;;9.27;46.39
70833;BME280;58452;59.418;17.962;2023-04-28T12:59:51;101244.47;;;9.15;46.88
70833;BME280;58452;59.418;17.962;2023-04-28T13:02:17;101239.09;;;8.96;47.60
70833;BME280;58452;59.418;17.962;2023-04-28T13:04:43;101237.13;;;8.77;48.04
70833;BME280;58452;59.418;17.962;2023-04-28T13:07:14;101239.34;;;8.93;47.81
70833;BME280;58452;59.418;17.962;2023-04-28T13:09:40;101236.22;;;9.32;47.53
70833;BME280;58452;59.418;17.962;2023-04-28T13:12:06;101239.66;;;9.85;47.29
70833;BME280;58452;59.418;17.962;2023-04-28T13:14:32;101233.22;;;9.59;45.91
70833;BME280;58452;59.418;17.962;2023-04-28T13:16:58;101231.06;;;9.96;47.07
70833;BME280;58452;59.418;17.962;2023-04-28T13:19:23;101231.00;;;10.48;48.90
70833;BME280;58452;59.418;17.962;2023-04-28T13:21:49;101232.88;;;10.86;52.03